Rachel, Nevada Weather observations

Data are for observation ending at time listed.
 Day   Time    Ave.   Ave.  Ave.  Vector   Max.   Stn.    Total    Solar   Ave.  
  of    of     Air    Rel.  Wind   Wind    Wind   Baro.  Precip.   Rad.    Soil  
Year   Day     Temp.  Hum.  Speed  Dir.    Gust   Pres.                    Temp. 
2017   (PST)    F      %     mph   deg.    mph     mb.     in.     W/m2     F   
------------------------------------------------------------------------------
  22   11:30   34.8    90   23.2   163     32.7   843.5    0.00     201    34.1
  22   11:40   34.7    89   26.0   172     38.3   843.4    0.00     148    34.2
  22   11:50   34.8    89   28.7   175     38.0   843.1    0.00     163    34.3
  22   12:00   34.7    88   32.4   174     40.3   842.9    0.00     133    34.4
  22   12:10   34.8    88   30.3   168     40.4   842.7    0.00     133    34.5
  22   12:20   35.1    88   26.9   162     36.5   843.0    0.00     127    34.6
  22   12:30   34.9    88   24.0   161     32.4   843.2    0.00      91    34.6
  22   12:40   34.9    89   21.0   164     28.8   843.2    0.00      70    34.6
  22   12:50   34.9    89   23.5   157     33.9   842.3    0.00      83    34.6
  22   13:00   35.1    88   28.5   162     36.4   841.4    0.00      97    34.7
  22   13:10   35.2    87   30.8   164     39.5   841.3    0.00      81    34.7
  22   13:20   35.1    88   29.0   165     39.2   841.1    0.00      71    34.7
  22   13:30   34.9    89   27.7   168     35.1   841.7    0.00      40    34.7
  22   13:40   34.5    90   26.6   170     35.4   841.7    0.00      36    34.6
  22   13:50   34.6    90   24.7   168     30.8   841.7    0.00      38    34.6
  22   14:00   34.7    90   20.6   171     27.8   841.7    0.00      45    34.6
  22   14:10   34.9    90   19.3   178     27.5   841.9    0.00      65    34.6
  22   14:20   35.0    89   20.2   180     27.0   842.0    0.00      54    34.7
  22   14:30   35.0    89   22.3   176     29.1   842.0    0.00      46    34.7
  22   14:40   34.7    89   21.0   170     26.5   842.2    0.00      34    34.8
  22   14:50   34.6    90   20.6   169     26.7   842.2    0.00      36    34.7
  22   15:00   34.5    90   17.7   170     22.9   842.0    0.00      34    34.7
  22   15:10   34.6    90   18.2   172     25.4   841.6    0.00      45    34.7
  22   15:20   34.8    88   21.2   174     27.7   841.4    0.00      51    34.8
  22   15:30   34.8    89   20.5   181     27.3   841.3    0.00      41    34.7
  22   15:40   34.7    88   23.5   171     28.6   841.3    0.00      34    34.7
  22   15:50   34.5    89   22.3   175     28.4   841.3    0.00      34    34.7
  22   16:00   34.7    89   22.0   172     27.2   841.3    0.00      31    34.6
  22   16:10   34.7    88   21.4   164     28.6   841.4    0.00      20    34.6
  22   16:20   34.5    89   20.1   161     25.6   841.2    0.01      16    34.4
  22   16:30   34.6    89   20.2   156     26.1   841.3    0.00      10    34.4
  22   16:40   34.3    90   18.0   148     23.8   841.2    0.00       7    34.3
  22   16:50   34.2    91   19.3   136     25.3   840.9    0.00       6    34.3
  22   17:00   34.4    91   15.7   132     23.2   840.9    0.00       3    34.2
  22   17:10   34.7    90   15.0   129     26.3   840.7    0.00       1    34.3
  22   17:20   34.8    89   15.0   129     24.1   840.5    0.00       0    34.4
  22   17:30   34.7    89   12.8   114     21.3   840.5    0.00       0    34.3
  22   17:40   34.7    90   11.9   121     22.1   840.2    0.00       0    34.3
  22   17:50   34.4    91   15.1   137     24.0   839.9    0.00       0    34.3
  22   18:00   34.4    90   13.4   140     21.8   839.4    0.00       0    34.3
  22   18:10   34.8    88   12.4   166     21.9   839.3    0.00       0    34.2
  22   18:20   34.7    89   11.7   168     19.9   839.4    0.00       0    34.2
  22   18:30   35.2    88    6.9   146     14.8   839.4    0.00       0    34.2
  22   18:40   35.5    87    5.5   132     16.3   839.1    0.00       0    34.4
  22   18:50   35.5    87    2.1    96      8.8   839.0    0.00       0    34.4
  22   19:00   35.1    88   10.1   193     18.3   839.0    0.00       0    34.4
  22   19:10   34.7    90   11.8   195     20.4   839.0    0.00       0    34.5
  22   19:20   34.6    92   11.4   194     18.9   839.0    0.00       0    34.3
  22   19:30   34.8    91   11.6   195     19.0   838.8    0.00       0    34.4
  22   19:40   35.0    90   11.1   187     20.0   838.7    0.00       0    34.4
  22   19:50   35.3    90    6.5   199     13.2   838.7    0.00       0    34.4
  22   20:00   35.9    88    4.1   216     11.3   838.9    0.00       0    34.5
  22   20:10   35.7    88    6.4   185     12.6   838.8    0.00       0    34.5
  22   20:20   35.6    89    6.3   154     14.5   838.6    0.00       0    34.5
  22   20:30   36.0    88    9.2   153     16.6   838.5    0.00       0    34.5
  22   20:40   35.8    88    9.9   152     15.9   838.6    0.00       0    34.6
  22   20:50   35.4    89   14.1   145     20.4   838.4    0.00       0    34.6
  22   21:00   35.3    90   15.4   148     20.8   838.3    0.00       0    34.5
  22   21:10   35.6    89   15.6   154     22.6   838.4    0.00       0    34.6
  22   21:20   35.4    89    9.5   152     16.7   838.3    0.00       0    34.6
  22   21:30   35.3    90   12.2   161     17.8   838.2    0.00       0    34.5
  22   21:40   35.5    89   14.5   179     20.3   838.1    0.00       0    34.6
  22   21:50   35.6    89   17.0   176     22.8   838.2    0.00       0    34.6
  22   22:00   35.7    90    9.4   193     16.2   838.2    0.00       0    34.6
  22   22:10   37.7    85   11.2   191     15.9   838.1    0.00       0    34.7
  22   22:20   37.1    86   13.1   184     17.7   838.1    0.01       0    34.8
  22   22:30   38.2    84   17.1   204     36.5   838.1    0.00       0    34.9
  22   22:40   40.6    76   30.9   210     48.7   837.7    0.00       0    35.1
  22   22:50   41.0    73   38.8   205     64.6   837.2    0.00       0    35.4
  22   23:00   40.9    73   42.2   203     54.5   837.1    0.00       0    35.6
  22   23:10   40.5    75   40.4   203     59.2   837.0    0.00       0    35.7
  22   23:20   40.6    75   42.7   204     56.9   837.0    0.00       0    35.6
  22   23:30   40.6    75   38.9   204     60.2   837.1    0.00       0    35.9
  22   23:40   40.6    73   40.6   204     55.3   836.7    0.00       0    35.9
  22   23:50   40.7    72   38.7   205     54.4   836.4    0.00       0    36.0
  23    0:00   40.7    71   38.5   202     57.3   836.2    0.00       0    36.0
  23    0:10   41.1    69   41.0   204     57.7   836.0    0.00       0    36.2
  23    0:20   41.0    68   45.2   205     66.6   836.1    0.00       0    36.1
  23    0:30   40.9    69   39.5   204     55.0   836.2    0.00       0    36.0
  23    0:40   40.9    67   41.5   202     60.8   836.0    0.00       0    36.0
  23    0:50   40.8    67   41.0   204     58.0   835.8    0.00       0    36.0
  23    1:00   40.7    67   39.1   207     51.4   835.6    0.00       0    36.0
  23    1:10   40.5    68   36.3   204     48.8   835.4    0.00       0    36.0
  23    1:20   40.5    68   35.5   204     52.7   835.4    0.00       0    36.2
  23    1:30   40.5    68   36.3   204     52.8   835.3    0.00       0    36.0
  23    1:40   40.3    70   34.0   204     44.6   835.4    0.00       0    36.1
  23    1:50   40.1    72   35.3   199     52.5   835.2    0.00       0    36.0
  23    2:00   40.2    71   36.1   203     48.4   835.0    0.00       0    36.0
  23    2:10   39.9    74   34.5   207     52.9   835.0    0.00       0    35.9
  23    2:20   39.2    78   30.1   206     43.1   835.3    0.00       0    35.9
  23    2:30   39.0    79   26.2   201     45.5   835.4    0.02       0    35.9
  23    2:40   39.1    79   25.5   202     38.2   835.5    0.00       0    35.9
  23    2:50   39.3    77   25.3   210     40.6   835.3    0.00       0    35.9
  23    3:00   39.1    78   27.9   211     39.0   835.3    0.01       0    35.9
  23    3:10   39.0    79   24.8   218     39.9   835.2    0.00       0    35.8
  23    3:20   38.9    81   30.3   219     44.6   835.1    0.00       0    35.9
  23    3:30   38.9    80   26.9   219     41.9   834.9    0.00       0    35.9
  23    3:40   38.8    80   29.4   226     40.4   834.9    0.00       0    36.0
  23    3:50   38.4    82   23.2   228     36.4   835.0    0.01       0    35.9
  23    4:00   38.5    81   24.3   226     40.1   834.9    0.00       0    35.9
  23    4:10   38.7    78   27.1   221     38.1   834.9    0.00       0    35.9
  23    4:20   38.3    79   25.8   219     43.8   834.8    0.00       0    35.9
  23    4:30   38.0    78   28.0   216     44.3   834.8    0.00       0    35.9
  23    4:40   37.1    80   29.8   215     49.1   835.0    0.00       0    35.7
  23    4:50   37.0    80   25.5   219     38.4   834.8    0.01       0    35.4
  23    5:00   37.2    78   24.8   224     39.7   834.7    0.00       0    35.4
  23    5:10   36.7    80   23.1   224     36.5   834.8    0.00       0    35.4
  23    5:20   36.4    79   22.3   226     32.2   834.8    0.00       0    35.3
  23    5:30   36.3    78   21.5   225     34.6   834.8    0.00       0    35.2
  23    5:40   36.4    75   26.1   221     39.1   834.6    0.00       0    35.2
  23    5:50   35.8    76   22.4   226     34.3   834.5    0.00       0    35.1
  23    6:00   35.8    74   25.7   229     39.2   834.3    0.00       0    35.0
  23    6:10   35.7    73   28.9   221     39.9   834.0    0.00       0    34.8
  23    6:20   36.0    70   31.0   220     41.9   833.7    0.00       0    34.7
  23    6:30   36.0    68   29.0   224     42.7   833.9    0.00       0    34.6
  23    6:40   36.0    67   24.5   236     38.9   834.1    0.00       0    34.6
  23    6:50   35.6    68   27.8   232     43.3   834.0    0.00       0    34.5
  23    7:00   35.4    68   27.3   232     43.6   834.2    0.00       3    34.4
  23    7:10   35.3    68   26.8   232     45.7   834.4    0.00       9    34.4
  23    7:20   35.4    66   31.2   226     42.8   834.4    0.00      14    34.4
  23    7:30   35.4    66   28.2   226     41.3   834.6    0.00      14    34.3
  23    7:40   35.1    68   23.6   224     36.7   834.8    0.00      14    34.3
  23    7:50   34.8    69   21.3   231     42.2   834.8    0.00      14    34.1
  23    8:00   34.8    69   18.4   225     35.1   835.4    0.00      16    34.0
  23    8:10   34.9    68   10.3   222     21.2   836.2    0.00      21    34.0
  23    8:20   35.1    67   10.8   204     19.8   836.8    0.00      28    34.0
  23    8:30   35.2    65   11.3   204     20.0   836.9    0.00      22    34.0
  23    8:40   35.5    63   13.8   194     25.5   837.0    0.00      23    34.0
  23    8:50   35.1    67   14.1   200     21.8   837.3    0.00      30    34.0
  23    9:00   35.0    68   13.7   209     21.7   837.4    0.00      52    34.0
  23    9:10   35.0    69   14.4   212     21.3   837.5    0.00      67    34.0
  23    9:20   35.0    70   14.1   222     23.1   837.8    0.00      57    34.1
  23    9:30   34.4    74   13.8   269     21.9   838.2    0.00      54    34.1
  23    9:40   31.4    89   12.5   306     20.1   838.4    0.00      48    33.8
  23    9:50   32.3    87   12.4   285     19.2   838.5    0.00      93    33.5
  23   10:00   33.2    83    8.4   284     11.9   838.6    0.00     114    33.5
  23   10:10   33.5    79    9.2   279     12.8   838.7    0.00     123    33.6
  23   10:20   33.5    82    7.7   272     11.5   838.9    0.01     134    33.7
  23   10:30   33.7    80    7.9   281     11.2   839.0    0.01     162    33.8
  23   10:40   33.6    81    6.5   289      9.4   839.0    0.00     153    33.8
  23   10:50   33.5    82    6.8   304      9.9   839.0    0.00     167    34.0
  23   11:00   34.0    83    3.9   285      7.9   838.8    0.00     240    34.2
  23   11:10   36.0    77    5.8   265      9.0   838.7    0.00     299    34.4
  23   11:20   37.2    70    6.0   264      9.9   838.5    0.00     309    34.9

Return to St. George, Utah graphs page.


Western Regional Climate Center,wrcc@dri.edu